Terminal Aerodrome Forecast
Issued by NWS

Home | Current Version | Previous Version | Text Only | Print | Product List | Glossary On
Versions: 1 2 3 4 5 6 7 8 9 10 11 12 13 14 15 16 17 18 19 20
000
FTUS43 KDVN 210857 AAA
TAFCID
TAF AMD
KCID 210857Z 2109/2206 26006KT 5SM BR SKC
      TEMPO 2110/2112 3SM BR
     FM211300 28005KT P6SM SCT100
     FM211700 28012G17KT P6SM SCT250
     FM220000 28009KT P6SM SKC=

USA.gov is the U.S. government's official web portal to all federal, state and local government web resources and services.